sensor_id;sensor_type;location;lat;lon;timestamp;P1;durP1;ratioP1;P2;durP2;ratioP2
10727;SDS011;5415;59.322;18.246;2022-11-24T00:00:05;3.57;;;2.90;;
10727;SDS011;5415;59.322;18.246;2022-11-24T00:02:35;3.10;;;2.63;;
10727;SDS011;5415;59.322;18.246;2022-11-24T00:05:02;3.13;;;2.43;;
10727;SDS011;5415;59.322;18.246;2022-11-24T00:07:30;3.03;;;2.57;;
10727;SDS011;5415;59.322;18.246;2022-11-24T00:10:02;5.53;;;2.77;;
10727;SDS011;5415;59.322;18.246;2022-11-24T00:12:30;1.37;;;1.30;;
10727;SDS011;5415;59.322;18.246;2022-11-24T00:14:57;2.47;;;2.27;;
10727;SDS011;5415;59.322;18.246;2022-11-24T00:17:25;2.07;;;1.93;;
10727;SDS011;5415;59.322;18.246;2022-11-24T00:19:55;4.70;;;2.73;;
10727;SDS011;5415;59.322;18.246;2022-11-24T00:22:22;2.40;;;2.20;;
10727;SDS011;5415;59.322;18.246;2022-11-24T00:24:50;3.40;;;3.10;;
10727;SDS011;5415;59.322;18.246;2022-11-24T00:27:17;1.87;;;1.77;;
10727;SDS011;5415;59.322;18.246;2022-11-24T00:29:45;4.63;;;2.67;;
10727;SDS011;5415;59.322;18.246;2022-11-24T00:32:14;3.67;;;2.90;;
10727;SDS011;5415;59.322;18.246;2022-11-24T00:34:41;2.90;;;2.50;;
10727;SDS011;5415;59.322;18.246;2022-11-24T00:37:11;3.93;;;3.17;;
10727;SDS011;5415;59.322;18.246;2022-11-24T00:39:38;3.23;;;2.73;;
10727;SDS011;5415;59.322;18.246;2022-11-24T00:42:06;5.77;;;3.40;;
10727;SDS011;5415;59.322;18.246;2022-11-24T00:44:34;2.93;;;2.47;;
10727;SDS011;5415;59.322;18.246;2022-11-24T00:47:01;3.43;;;2.70;;
10727;SDS011;5415;59.322;18.246;2022-11-24T00:49:28;2.90;;;2.57;;
10727;SDS011;5415;59.322;18.246;2022-11-24T00:51:56;2.97;;;2.60;;
10727;SDS011;5415;59.322;18.246;2022-11-24T00:54:25;4.10;;;2.83;;
10727;SDS011;5415;59.322;18.246;2022-11-24T00:56:54;3.60;;;2.87;;
10727;SDS011;5415;59.322;18.246;2022-11-24T00:59:21;3.80;;;2.77;;
10727;SDS011;5415;59.322;18.246;2022-11-24T01:01:49;4.60;;;2.77;;
10727;SDS011;5415;59.322;18.246;2022-11-24T01:04:17;3.83;;;3.13;;
10727;SDS011;5415;59.322;18.246;2022-11-24T01:06:44;3.67;;;2.80;;
10727;SDS011;5415;59.322;18.246;2022-11-24T01:09:11;3.67;;;3.00;;
10727;SDS011;5415;59.322;18.246;2022-11-24T01:11:41;3.47;;;2.90;;
10727;SDS011;5415;59.322;18.246;2022-11-24T01:14:29;3.47;;;3.13;;
10727;SDS011;5415;59.322;18.246;2022-11-24T01:16:57;4.13;;;2.87;;
10727;SDS011;5415;59.322;18.246;2022-11-24T01:19:24;4.40;;;3.17;;
10727;SDS011;5415;59.322;18.246;2022-11-24T01:21:53;4.27;;;2.73;;
10727;SDS011;5415;59.322;18.246;2022-11-24T01:24:20;3.53;;;3.23;;
10727;SDS011;5415;59.322;18.246;2022-11-24T01:26:49;3.63;;;3.20;;
10727;SDS011;5415;59.322;18.246;2022-11-24T01:29:16;8.07;;;2.87;;
10727;SDS011;5415;59.322;18.246;2022-11-24T01:31:44;4.27;;;3.33;;
10727;SDS011;5415;59.322;18.246;2022-11-24T01:34:12;3.80;;;3.07;;
10727;SDS011;5415;59.322;18.246;2022-11-24T01:36:40;4.70;;;3.57;;
10727;SDS011;5415;59.322;18.246;2022-11-24T01:39:09;3.77;;;3.13;;
10727;SDS011;5415;59.322;18.246;2022-11-24T01:41:37;4.47;;;3.33;;
10727;SDS011;5415;59.322;18.246;2022-11-24T01:44:25;5.80;;;3.60;;
10727;SDS011;5415;59.322;18.246;2022-11-24T01:46:54;3.50;;;3.20;;
10727;SDS011;5415;59.322;18.246;2022-11-24T01:49:23;4.17;;;3.70;;
10727;SDS011;5415;59.322;18.246;2022-11-24T01:51:52;4.83;;;3.10;;
10727;SDS011;5415;59.322;18.246;2022-11-24T01:54:24;3.60;;;3.27;;
10727;SDS011;5415;59.322;18.246;2022-11-24T01:56:52;4.03;;;3.40;;
10727;SDS011;5415;59.322;18.246;2022-11-24T01:59:20;4.20;;;3.47;;
10727;SDS011;5415;59.322;18.246;2022-11-24T02:01:51;4.47;;;4.00;;
10727;SDS011;5415;59.322;18.246;2022-11-24T02:04:20;4.70;;;3.13;;
10727;SDS011;5415;59.322;18.246;2022-11-24T02:06:49;4.57;;;3.30;;
10727;SDS011;5415;59.322;18.246;2022-11-24T02:09:20;5.47;;;4.30;;
10727;SDS011;5415;59.322;18.246;2022-11-24T02:11:49;6.47;;;4.10;;
10727;SDS011;5415;59.322;18.246;2022-11-24T02:14:17;4.10;;;3.47;;
10727;SDS011;5415;59.322;18.246;2022-11-24T02:16:47;3.93;;;3.37;;
10727;SDS011;5415;59.322;18.246;2022-11-24T02:19:20;6.47;;;3.73;;
10727;SDS011;5415;59.322;18.246;2022-11-24T02:21:53;4.20;;;3.80;;
10727;SDS011;5415;59.322;18.246;2022-11-24T02:24:23;2.40;;;2.20;;
10727;SDS011;5415;59.322;18.246;2022-11-24T02:26:53;4.93;;;3.97;;
10727;SDS011;5415;59.322;18.246;2022-11-24T02:29:22;5.30;;;3.93;;
10727;SDS011;5415;59.322;18.246;2022-11-24T02:31:51;2.73;;;2.50;;
10727;SDS011;5415;59.322;18.246;2022-11-24T02:34:19;5.10;;;4.00;;
10727;SDS011;5415;59.322;18.246;2022-11-24T02:36:46;5.60;;;4.23;;
10727;SDS011;5415;59.322;18.246;2022-11-24T02:39:14;4.43;;;3.67;;
10727;SDS011;5415;59.322;18.246;2022-11-24T02:41:42;3.20;;;2.90;;
10727;SDS011;5415;59.322;18.246;2022-11-24T02:44:12;8.50;;;4.47;;
10727;SDS011;5415;59.322;18.246;2022-11-24T02:46:40;5.97;;;4.30;;
10727;SDS011;5415;59.322;18.246;2022-11-24T02:49:09;5.57;;;4.10;;
10727;SDS011;5415;59.322;18.246;2022-11-24T02:51:37;5.27;;;4.07;;
10727;SDS011;5415;59.322;18.246;2022-11-24T02:54:07;5.00;;;3.90;;
10727;SDS011;5415;59.322;18.246;2022-11-24T02:56:35;6.33;;;4.60;;
10727;SDS011;5415;59.322;18.246;2022-11-24T02:59:02;6.03;;;4.47;;
10727;SDS011;5415;59.322;18.246;2022-11-24T03:01:32;5.10;;;4.03;;
10727;SDS011;5415;59.322;18.246;2022-11-24T03:03:59;6.23;;;4.20;;
10727;SDS011;5415;59.322;18.246;2022-11-24T03:06:27;6.10;;;4.43;;
10727;SDS011;5415;59.322;18.246;2022-11-24T03:08:55;4.73;;;3.93;;
10727;SDS011;5415;59.322;18.246;2022-11-24T03:11:23;5.47;;;3.83;;
10727;SDS011;5415;59.322;18.246;2022-11-24T03:13:50;3.90;;;3.50;;
10727;SDS011;5415;59.322;18.246;2022-11-24T03:16:18;6.47;;;4.33;;
10727;SDS011;5415;59.322;18.246;2022-11-24T03:18:47;5.47;;;4.20;;
10727;SDS011;5415;59.322;18.246;2022-11-24T03:21:16;7.73;;;3.73;;
10727;SDS011;5415;59.322;18.246;2022-11-24T03:23:44;4.73;;;4.03;;
10727;SDS011;5415;59.322;18.246;2022-11-24T03:26:12;5.30;;;3.83;;
10727;SDS011;5415;59.322;18.246;2022-11-24T03:28:40;5.30;;;4.30;;
10727;SDS011;5415;59.322;18.246;2022-11-24T03:31:08;6.23;;;4.27;;
10727;SDS011;5415;59.322;18.246;2022-11-24T03:33:36;6.40;;;4.73;;
10727;SDS011;5415;59.322;18.246;2022-11-24T03:36:06;6.03;;;3.53;;
10727;SDS011;5415;59.322;18.246;2022-11-24T03:38:34;7.67;;;4.70;;
10727;SDS011;5415;59.322;18.246;2022-11-24T03:41:01;5.77;;;4.73;;
10727;SDS011;5415;59.322;18.246;2022-11-24T03:43:29;5.47;;;4.57;;
10727;SDS011;5415;59.322;18.246;2022-11-24T03:45:56;7.10;;;4.60;;
10727;SDS011;5415;59.322;18.246;2022-11-24T03:48:24;6.40;;;4.90;;
10727;SDS011;5415;59.322;18.246;2022-11-24T03:50:52;5.73;;;3.33;;
10727;SDS011;5415;59.322;18.246;2022-11-24T03:53:22;6.23;;;3.80;;
10727;SDS011;5415;59.322;18.246;2022-11-24T03:55:50;8.80;;;4.37;;
10727;SDS011;5415;59.322;18.246;2022-11-24T03:58:19;7.97;;;4.67;;
10727;SDS011;5415;59.322;18.246;2022-11-24T04:00:47;6.90;;;4.30;;
10727;SDS011;5415;59.322;18.246;2022-11-24T04:03:14;6.10;;;4.70;;
10727;SDS011;5415;59.322;18.246;2022-11-24T04:05:44;3.90;;;3.10;;
10727;SDS011;5415;59.322;18.246;2022-11-24T04:08:11;1.47;;;1.37;;
10727;SDS011;5415;59.322;18.246;2022-11-24T04:10:41;4.73;;;3.20;;
10727;SDS011;5415;59.322;18.246;2022-11-24T04:13:10;5.77;;;4.37;;
10727;SDS011;5415;59.322;18.246;2022-11-24T04:15:38;5.30;;;4.30;;
10727;SDS011;5415;59.322;18.246;2022-11-24T04:18:06;6.77;;;4.67;;
10727;SDS011;5415;59.322;18.246;2022-11-24T04:20:33;6.03;;;4.77;;
10727;SDS011;5415;59.322;18.246;2022-11-24T04:23:01;4.60;;;4.20;;
10727;SDS011;5415;59.322;18.246;2022-11-24T04:25:31;3.70;;;3.23;;
10727;SDS011;5415;59.322;18.246;2022-11-24T04:28:00;5.67;;;3.67;;
10727;SDS011;5415;59.322;18.246;2022-11-24T04:30:28;7.07;;;4.80;;
10727;SDS011;5415;59.322;18.246;2022-11-24T04:32:56;5.97;;;4.20;;
10727;SDS011;5415;59.322;18.246;2022-11-24T04:35:24;6.83;;;4.17;;
10727;SDS011;5415;59.322;18.246;2022-11-24T04:37:51;6.10;;;3.70;;
10727;SDS011;5415;59.322;18.246;2022-11-24T04:40:19;5.30;;;4.40;;
10727;SDS011;5415;59.322;18.246;2022-11-24T04:42:51;7.63;;;3.87;;
10727;SDS011;5415;59.322;18.246;2022-11-24T04:45:21;2.80;;;2.57;;
10727;SDS011;5415;59.322;18.246;2022-11-24T04:47:49;5.87;;;4.50;;
10727;SDS011;5415;59.322;18.246;2022-11-24T04:50:17;5.90;;;4.20;;
10727;SDS011;5415;59.322;18.246;2022-11-24T04:52:46;7.47;;;3.90;;
10727;SDS011;5415;59.322;18.246;2022-11-24T04:55:13;6.17;;;4.23;;
10727;SDS011;5415;59.322;18.246;2022-11-24T04:57:41;3.17;;;2.70;;
10727;SDS011;5415;59.322;18.246;2022-11-24T05:00:09;4.73;;;4.13;;
10727;SDS011;5415;59.322;18.246;2022-11-24T05:02:38;3.17;;;2.87;;
10727;SDS011;5415;59.322;18.246;2022-11-24T05:05:06;3.80;;;2.80;;
10727;SDS011;5415;59.322;18.246;2022-11-24T05:07:34;5.50;;;3.93;;
10727;SDS011;5415;59.322;18.246;2022-11-24T05:10:04;1.10;;;1.10;;
10727;SDS011;5415;59.322;18.246;2022-11-24T05:12:52;5.43;;;3.93;;
10727;SDS011;5415;59.322;18.246;2022-11-24T05:15:20;4.57;;;3.63;;
10727;SDS011;5415;59.322;18.246;2022-11-24T05:17:50;4.63;;;3.73;;
10727;SDS011;5415;59.322;18.246;2022-11-24T05:20:17;5.73;;;3.17;;
10727;SDS011;5415;59.322;18.246;2022-11-24T05:22:45;5.57;;;3.90;;
10727;SDS011;5415;59.322;18.246;2022-11-24T05:25:12;5.10;;;4.00;;
10727;SDS011;5415;59.322;18.246;2022-11-24T05:27:40;7.00;;;4.37;;
10727;SDS011;5415;59.322;18.246;2022-11-24T05:30:09;4.80;;;3.47;;
10727;SDS011;5415;59.322;18.246;2022-11-24T05:32:36;4.10;;;3.70;;
10727;SDS011;5415;59.322;18.246;2022-11-24T05:35:07;3.73;;;2.53;;
10727;SDS011;5415;59.322;18.246;2022-11-24T05:37:35;3.93;;;2.87;;
10727;SDS011;5415;59.322;18.246;2022-11-24T05:40:03;4.07;;;3.60;;
10727;SDS011;5415;59.322;18.246;2022-11-24T05:42:32;7.80;;;3.93;;
10727;SDS011;5415;59.322;18.246;2022-11-24T05:45:08;6.67;;;3.97;;
10727;SDS011;5415;59.322;18.246;2022-11-24T05:47:37;5.93;;;3.83;;
10727;SDS011;5415;59.322;18.246;2022-11-24T05:50:08;4.83;;;3.70;;
10727;SDS011;5415;59.322;18.246;2022-11-24T05:52:36;4.17;;;3.33;;
10727;SDS011;5415;59.322;18.246;2022-11-24T05:55:04;5.20;;;3.13;;
10727;SDS011;5415;59.322;18.246;2022-11-24T05:57:33;5.87;;;3.90;;
10727;SDS011;5415;59.322;18.246;2022-11-24T06:00:01;4.80;;;3.70;;
10727;SDS011;5415;59.322;18.246;2022-11-24T06:02:28;4.27;;;2.53;;
10727;SDS011;5415;59.322;18.246;2022-11-24T06:04:57;5.10;;;3.67;;
10727;SDS011;5415;59.322;18.246;2022-11-24T06:07:26;3.10;;;2.57;;
10727;SDS011;5415;59.322;18.246;2022-11-24T06:09:54;5.60;;;4.23;;
10727;SDS011;5415;59.322;18.246;2022-11-24T06:12:22;5.77;;;4.33;;
10727;SDS011;5415;59.322;18.246;2022-11-24T06:14:51;10.50;;;4.50;;
10727;SDS011;5415;59.322;18.246;2022-11-24T06:17:18;5.87;;;4.13;;
10727;SDS011;5415;59.322;18.246;2022-11-24T06:19:45;7.27;;;4.60;;
10727;SDS011;5415;59.322;18.246;2022-11-24T06:22:14;4.03;;;3.57;;
10727;SDS011;5415;59.322;18.246;2022-11-24T06:24:44;9.40;;;4.70;;
10727;SDS011;5415;59.322;18.246;2022-11-24T06:27:14;4.60;;;3.77;;
10727;SDS011;5415;59.322;18.246;2022-11-24T06:29:42;3.03;;;2.40;;
10727;SDS011;5415;59.322;18.246;2022-11-24T06:32:10;6.13;;;4.87;;
10727;SDS011;5415;59.322;18.246;2022-11-24T06:34:37;4.70;;;3.97;;
10727;SDS011;5415;59.322;18.246;2022-11-24T06:37:05;4.77;;;3.53;;
10727;SDS011;5415;59.322;18.246;2022-11-24T06:39:33;6.83;;;4.50;;
10727;SDS011;5415;59.322;18.246;2022-11-24T06:42:03;2.63;;;2.40;;
10727;SDS011;5415;59.322;18.246;2022-11-24T06:44:30;6.97;;;4.70;;
10727;SDS011;5415;59.322;18.246;2022-11-24T06:46:58;6.10;;;4.90;;
10727;SDS011;5415;59.322;18.246;2022-11-24T06:49:25;6.63;;;4.90;;
10727;SDS011;5415;59.322;18.246;2022-11-24T06:51:53;5.67;;;4.93;;
10727;SDS011;5415;59.322;18.246;2022-11-24T06:54:22;8.70;;;5.67;;
10727;SDS011;5415;59.322;18.246;2022-11-24T06:56:54;8.70;;;5.73;;
10727;SDS011;5415;59.322;18.246;2022-11-24T06:59:23;6.03;;;4.40;;
10727;SDS011;5415;59.322;18.246;2022-11-24T07:01:52;6.43;;;5.07;;
10727;SDS011;5415;59.322;18.246;2022-11-24T07:04:19;6.07;;;4.47;;
10727;SDS011;5415;59.322;18.246;2022-11-24T07:06:47;3.87;;;2.17;;
10727;SDS011;5415;59.322;18.246;2022-11-24T07:09:14;8.83;;;5.97;;
10727;SDS011;5415;59.322;18.246;2022-11-24T07:11:42;6.40;;;4.50;;
10727;SDS011;5415;59.322;18.246;2022-11-24T07:14:11;8.70;;;5.40;;
10727;SDS011;5415;59.322;18.246;2022-11-24T07:16:40;2.87;;;2.63;;
10727;SDS011;5415;59.322;18.246;2022-11-24T07:19:08;6.80;;;5.50;;
10727;SDS011;5415;59.322;18.246;2022-11-24T07:21:35;1.40;;;1.30;;
10727;SDS011;5415;59.322;18.246;2022-11-24T07:24:03;3.57;;;2.93;;
10727;SDS011;5415;59.322;18.246;2022-11-24T07:26:32;4.87;;;4.00;;
10727;SDS011;5415;59.322;18.246;2022-11-24T07:29:01;6.90;;;5.37;;
10727;SDS011;5415;59.322;18.246;2022-11-24T07:31:30;6.03;;;4.80;;
10727;SDS011;5415;59.322;18.246;2022-11-24T07:33:59;9.57;;;6.00;;
10727;SDS011;5415;59.322;18.246;2022-11-24T07:36:26;2.77;;;2.37;;
10727;SDS011;5415;59.322;18.246;2022-11-24T07:38:54;6.27;;;4.93;;
10727;SDS011;5415;59.322;18.246;2022-11-24T07:41:22;6.90;;;5.30;;
10727;SDS011;5415;59.322;18.246;2022-11-24T07:43:51;7.47;;;5.17;;
10727;SDS011;5415;59.322;18.246;2022-11-24T07:46:20;6.83;;;4.70;;
10727;SDS011;5415;59.322;18.246;2022-11-24T07:48:49;6.27;;;5.13;;
10727;SDS011;5415;59.322;18.246;2022-11-24T07:51:18;6.10;;;4.40;;
10727;SDS011;5415;59.322;18.246;2022-11-24T07:53:46;5.03;;;3.83;;
10727;SDS011;5415;59.322;18.246;2022-11-24T07:56:15;5.73;;;4.70;;
10727;SDS011;5415;59.322;18.246;2022-11-24T07:58:43;3.73;;;3.27;;
10727;SDS011;5415;59.322;18.246;2022-11-24T08:01:11;6.57;;;3.83;;
10727;SDS011;5415;59.322;18.246;2022-11-24T08:03:39;5.50;;;3.90;;
10727;SDS011;5415;59.322;18.246;2022-11-24T08:06:07;1.73;;;1.63;;
10727;SDS011;5415;59.322;18.246;2022-11-24T08:08:35;6.43;;;4.50;;
10727;SDS011;5415;59.322;18.246;2022-11-24T08:11:04;5.83;;;4.50;;
10727;SDS011;5415;59.322;18.246;2022-11-24T08:13:32;6.83;;;4.40;;
10727;SDS011;5415;59.322;18.246;2022-11-24T08:16:02;6.47;;;4.43;;
10727;SDS011;5415;59.322;18.246;2022-11-24T08:18:30;3.87;;;3.43;;
10727;SDS011;5415;59.322;18.246;2022-11-24T08:20:58;3.43;;;2.90;;
10727;SDS011;5415;59.322;18.246;2022-11-24T08:23:26;8.17;;;4.13;;
10727;SDS011;5415;59.322;18.246;2022-11-24T08:25:56;4.83;;;3.53;;
10727;SDS011;5415;59.322;18.246;2022-11-24T08:28:29;7.03;;;4.07;;
10727;SDS011;5415;59.322;18.246;2022-11-24T08:31:00;5.07;;;4.07;;
10727;SDS011;5415;59.322;18.246;2022-11-24T08:33:27;7.57;;;4.17;;
10727;SDS011;5415;59.322;18.246;2022-11-24T08:36:01;5.27;;;4.40;;
10727;SDS011;5415;59.322;18.246;2022-11-24T08:38:28;5.00;;;4.20;;
10727;SDS011;5415;59.322;18.246;2022-11-24T08:41:00;5.87;;;4.43;;
10727;SDS011;5415;59.322;18.246;2022-11-24T08:43:28;4.57;;;2.83;;
10727;SDS011;5415;59.322;18.246;2022-11-24T08:45:58;5.27;;;4.10;;
10727;SDS011;5415;59.322;18.246;2022-11-24T08:48:25;4.17;;;3.73;;
10727;SDS011;5415;59.322;18.246;2022-11-24T08:50:53;4.90;;;3.83;;
10727;SDS011;5415;59.322;18.246;2022-11-24T08:53:21;5.73;;;4.60;;
10727;SDS011;5415;59.322;18.246;2022-11-24T08:55:49;5.67;;;4.50;;
10727;SDS011;5415;59.322;18.246;2022-11-24T08:58:19;6.67;;;4.80;;
10727;SDS011;5415;59.322;18.246;2022-11-24T09:00:48;5.70;;;4.87;;
10727;SDS011;5415;59.322;18.246;2022-11-24T09:03:16;3.77;;;3.40;;
10727;SDS011;5415;59.322;18.246;2022-11-24T09:05:43;4.37;;;3.53;;
10727;SDS011;5415;59.322;18.246;2022-11-24T09:08:12;6.63;;;4.43;;
10727;SDS011;5415;59.322;18.246;2022-11-24T09:10:40;4.63;;;3.40;;
10727;SDS011;5415;59.322;18.246;2022-11-24T09:13:08;8.53;;;4.47;;
10727;SDS011;5415;59.322;18.246;2022-11-24T09:15:36;3.80;;;3.40;;
10727;SDS011;5415;59.322;18.246;2022-11-24T09:18:04;6.27;;;4.47;;
10727;SDS011;5415;59.322;18.246;2022-11-24T09:20:32;6.03;;;4.30;;
10727;SDS011;5415;59.322;18.246;2022-11-24T09:23:00;5.13;;;4.20;;
10727;SDS011;5415;59.322;18.246;2022-11-24T09:25:27;6.07;;;4.70;;
10727;SDS011;5415;59.322;18.246;2022-11-24T09:27:55;5.33;;;4.17;;
10727;SDS011;5415;59.322;18.246;2022-11-24T09:30:24;7.17;;;4.63;;
10727;SDS011;5415;59.322;18.246;2022-11-24T09:32:56;6.97;;;3.90;;
10727;SDS011;5415;59.322;18.246;2022-11-24T09:35:24;3.53;;;3.20;;
10727;SDS011;5415;59.322;18.246;2022-11-24T09:37:52;4.17;;;3.10;;
10727;SDS011;5415;59.322;18.246;2022-11-24T09:40:24;5.13;;;3.47;;
10727;SDS011;5415;59.322;18.246;2022-11-24T09:42:54;4.07;;;2.47;;
10727;SDS011;5415;59.322;18.246;2022-11-24T09:45:27;3.20;;;2.90;;
10727;SDS011;5415;59.322;18.246;2022-11-24T09:48:03;3.70;;;2.87;;
10727;SDS011;5415;59.322;18.246;2022-11-24T09:50:35;4.43;;;3.30;;
10727;SDS011;5415;59.322;18.246;2022-11-24T09:53:05;5.10;;;3.83;;
10727;SDS011;5415;59.322;18.246;2022-11-24T09:55:38;3.43;;;3.07;;
10727;SDS011;5415;59.322;18.246;2022-11-24T09:58:29;4.37;;;3.23;;
10727;SDS011;5415;59.322;18.246;2022-11-24T10:00:57;3.93;;;3.13;;
10727;SDS011;5415;59.322;18.246;2022-11-24T10:03:29;2.60;;;2.40;;
10727;SDS011;5415;59.322;18.246;2022-11-24T10:05:58;2.67;;;2.43;;
10727;SDS011;5415;59.322;18.246;2022-11-24T10:08:35;2.93;;;2.73;;
10727;SDS011;5415;59.322;18.246;2022-11-24T10:11:05;4.83;;;3.27;;
10727;SDS011;5415;59.322;18.246;2022-11-24T10:13:40;3.93;;;2.83;;
10727;SDS011;5415;59.322;18.246;2022-11-24T10:16:14;3.43;;;2.70;;
10727;SDS011;5415;59.322;18.246;2022-11-24T10:18:50;2.83;;;2.53;;
10727;SDS011;5415;59.322;18.246;2022-11-24T10:21:29;3.00;;;2.70;;
10727;SDS011;5415;59.322;18.246;2022-11-24T10:24:03;2.57;;;2.30;;
10727;SDS011;5415;59.322;18.246;2022-11-24T10:26:34;2.50;;;2.30;;
10727;SDS011;5415;59.322;18.246;2022-11-24T10:29:07;3.33;;;2.30;;
10727;SDS011;5415;59.322;18.246;2022-11-24T10:31:38;3.20;;;2.63;;
10727;SDS011;5415;59.322;18.246;2022-11-24T10:34:11;2.33;;;2.13;;
10727;SDS011;5415;59.322;18.246;2022-11-24T10:36:42;2.97;;;2.30;;
10727;SDS011;5415;59.322;18.246;2022-11-24T10:39:12;3.93;;;2.43;;
10727;SDS011;5415;59.322;18.246;2022-11-24T10:41:45;4.83;;;2.80;;
10727;SDS011;5415;59.322;18.246;2022-11-24T10:44:14;2.53;;;2.33;;
10727;SDS011;5415;59.322;18.246;2022-11-24T10:46:42;2.53;;;2.20;;
10727;SDS011;5415;59.322;18.246;2022-11-24T10:49:15;2.43;;;2.10;;
10727;SDS011;5415;59.322;18.246;2022-11-24T10:51:50;2.40;;;2.20;;
10727;SDS011;5415;59.322;18.246;2022-11-24T10:54:19;2.67;;;2.40;;
10727;SDS011;5415;59.322;18.246;2022-11-24T10:56:49;2.13;;;1.93;;
10727;SDS011;5415;59.322;18.246;2022-11-24T10:59:21;2.87;;;2.37;;
10727;SDS011;5415;59.322;18.246;2022-11-24T11:01:54;2.73;;;2.17;;
10727;SDS011;5415;59.322;18.246;2022-11-24T11:04:24;2.30;;;1.77;;
10727;SDS011;5415;59.322;18.246;2022-11-24T11:06:54;2.23;;;2.03;;
10727;SDS011;5415;59.322;18.246;2022-11-24T11:09:32;2.67;;;1.80;;
10727;SDS011;5415;59.322;18.246;2022-11-24T11:12:07;3.00;;;2.00;;
10727;SDS011;5415;59.322;18.246;2022-11-24T11:14:35;3.73;;;2.00;;
10727;SDS011;5415;59.322;18.246;2022-11-24T11:19:48;2.03;;;1.83;;
10727;SDS011;5415;59.322;18.246;2022-11-24T11:22:19;1.80;;;1.70;;
10727;SDS011;5415;59.322;18.246;2022-11-24T11:25:00;2.43;;;1.93;;
10727;SDS011;5415;59.322;18.246;2022-11-24T11:27:28;2.10;;;1.87;;
10727;SDS011;5415;59.322;18.246;2022-11-24T11:30:00;1.77;;;1.67;;
10727;SDS011;5415;59.322;18.246;2022-11-24T11:32:49;2.20;;;2.00;;
10727;SDS011;5415;59.322;18.246;2022-11-24T11:35:20;2.50;;;1.83;;
10727;SDS011;5415;59.322;18.246;2022-11-24T11:37:48;2.20;;;2.00;;
10727;SDS011;5415;59.322;18.246;2022-11-24T11:40:16;1.40;;;1.30;;
10727;SDS011;5415;59.322;18.246;2022-11-24T11:42:46;1.90;;;1.70;;
10727;SDS011;5415;59.322;18.246;2022-11-24T11:45:14;1.80;;;1.50;;
10727;SDS011;5415;59.322;18.246;2022-11-24T11:47:43;1.87;;;1.63;;
10727;SDS011;5415;59.322;18.246;2022-11-24T11:50:14;1.90;;;1.70;;
10727;SDS011;5415;59.322;18.246;2022-11-24T12:00:59;1.77;;;1.60;;
10727;SDS011;5415;59.322;18.246;2022-11-24T12:03:44;1.50;;;1.40;;
10727;SDS011;5415;59.322;18.246;2022-11-24T12:06:18;3.00;;;1.87;;
10727;SDS011;5415;59.322;18.246;2022-11-24T12:08:50;2.97;;;1.70;;
10727;SDS011;5415;59.322;18.246;2022-11-24T12:11:21;1.80;;;1.70;;
10727;SDS011;5415;59.322;18.246;2022-11-24T12:13:57;1.70;;;1.53;;
10727;SDS011;5415;59.322;18.246;2022-11-24T12:16:31;3.60;;;1.83;;
10727;SDS011;5415;59.322;18.246;2022-11-24T12:19:04;2.30;;;1.80;;
10727;SDS011;5415;59.322;18.246;2022-11-24T12:21:37;2.83;;;1.70;;
10727;SDS011;5415;59.322;18.246;2022-11-24T12:24:10;1.40;;;1.30;;
10727;SDS011;5415;59.322;18.246;2022-11-24T12:26:41;1.53;;;1.43;;
10727;SDS011;5415;59.322;18.246;2022-11-24T12:29:22;1.50;;;1.40;;
10727;SDS011;5415;59.322;18.246;2022-11-24T12:32:02;1.50;;;1.40;;
10727;SDS011;5415;59.322;18.246;2022-11-24T12:34:35;1.67;;;1.50;;
10727;SDS011;5415;59.322;18.246;2022-11-24T12:37:10;1.83;;;1.73;;
10727;SDS011;5415;59.322;18.246;2022-11-24T12:39:43;2.50;;;1.80;;
10727;SDS011;5415;59.322;18.246;2022-11-24T12:42:16;1.63;;;1.53;;
10727;SDS011;5415;59.322;18.246;2022-11-24T12:44:51;2.17;;;1.97;;
10727;SDS011;5415;59.322;18.246;2022-11-24T12:47:26;2.37;;;2.17;;
10727;SDS011;5415;59.322;18.246;2022-11-24T12:50:02;3.17;;;2.20;;
10727;SDS011;5415;59.322;18.246;2022-11-24T12:52:35;2.20;;;2.00;;
10727;SDS011;5415;59.322;18.246;2022-11-24T12:55:11;1.80;;;1.70;;
10727;SDS011;5415;59.322;18.246;2022-11-24T12:57:40;1.80;;;1.57;;
10727;SDS011;5415;59.322;18.246;2022-11-24T13:00:12;4.70;;;2.00;;
10727;SDS011;5415;59.322;18.246;2022-11-24T13:02:52;2.30;;;1.90;;
10727;SDS011;5415;59.322;18.246;2022-11-24T13:05:22;2.83;;;1.83;;
10727;SDS011;5415;59.322;18.246;2022-11-24T13:07:53;3.27;;;2.40;;
10727;SDS011;5415;59.322;18.246;2022-11-24T13:10:27;1.60;;;1.50;;
10727;SDS011;5415;59.322;18.246;2022-11-24T13:12:55;1.83;;;1.73;;
10727;SDS011;5415;59.322;18.246;2022-11-24T13:15:23;3.03;;;2.00;;
10727;SDS011;5415;59.322;18.246;2022-11-24T13:17:53;2.40;;;1.90;;
10727;SDS011;5415;59.322;18.246;2022-11-24T13:20:23;2.30;;;1.77;;
10727;SDS011;5415;59.322;18.246;2022-11-24T13:22:52;2.17;;;1.93;;
10727;SDS011;5415;59.322;18.246;2022-11-24T13:25:21;1.80;;;1.70;;
10727;SDS011;5415;59.322;18.246;2022-11-24T13:27:50;3.37;;;1.70;;
10727;SDS011;5415;59.322;18.246;2022-11-24T13:38:56;1.50;;;1.40;;
10727;SDS011;5415;59.322;18.246;2022-11-24T13:44:16;2.03;;;1.90;;
10727;SDS011;5415;59.322;18.246;2022-11-24T13:46:55;2.17;;;1.80;;
10727;SDS011;5415;59.322;18.246;2022-11-24T13:49:35;2.20;;;1.90;;
10727;SDS011;5415;59.322;18.246;2022-11-24T13:54:48;3.37;;;2.00;;
10727;SDS011;5415;59.322;18.246;2022-11-24T13:57:31;2.10;;;1.90;;
10727;SDS011;5415;59.322;18.246;2022-11-24T13:59:59;2.60;;;2.00;;
10727;SDS011;5415;59.322;18.246;2022-11-24T14:02:27;2.90;;;1.87;;
10727;SDS011;5415;59.322;18.246;2022-11-24T14:04:54;2.50;;;2.00;;
10727;SDS011;5415;59.322;18.246;2022-11-24T14:07:23;2.50;;;1.73;;
10727;SDS011;5415;59.322;18.246;2022-11-24T14:09:53;3.00;;;2.13;;
10727;SDS011;5415;59.322;18.246;2022-11-24T14:12:21;2.20;;;1.73;;
10727;SDS011;5415;59.322;18.246;2022-11-24T14:14:49;3.70;;;2.20;;
10727;SDS011;5415;59.322;18.246;2022-11-24T14:17:20;4.47;;;2.17;;
10727;SDS011;5415;59.322;18.246;2022-11-24T14:19:49;3.73;;;2.03;;
10727;SDS011;5415;59.322;18.246;2022-11-24T14:22:17;1.87;;;1.67;;
10727;SDS011;5415;59.322;18.246;2022-11-24T14:27:33;2.23;;;1.80;;
10727;SDS011;5415;59.322;18.246;2022-11-24T14:30:16;1.87;;;1.63;;
10727;SDS011;5415;59.322;18.246;2022-11-24T14:32:51;2.83;;;2.00;;
10727;SDS011;5415;59.322;18.246;2022-11-24T14:35:21;2.23;;;2.00;;
10727;SDS011;5415;59.322;18.246;2022-11-24T14:37:49;3.03;;;1.87;;
10727;SDS011;5415;59.322;18.246;2022-11-24T14:43:02;2.17;;;1.70;;
10727;SDS011;5415;59.322;18.246;2022-11-24T14:45:30;2.60;;;1.90;;
10727;SDS011;5415;59.322;18.246;2022-11-24T14:47:57;2.00;;;1.80;;
10727;SDS011;5415;59.322;18.246;2022-11-24T14:50:25;3.80;;;1.80;;
10727;SDS011;5415;59.322;18.246;2022-11-24T14:52:55;1.90;;;1.70;;
10727;SDS011;5415;59.322;18.246;2022-11-24T14:55:24;2.50;;;1.60;;
10727;SDS011;5415;59.322;18.246;2022-11-24T14:57:52;1.83;;;1.70;;
10727;SDS011;5415;59.322;18.246;2022-11-24T15:00:26;2.00;;;1.60;;
10727;SDS011;5415;59.322;18.246;2022-11-24T15:03:06;2.43;;;1.80;;
10727;SDS011;5415;59.322;18.246;2022-11-24T15:05:48;2.10;;;1.70;;
10727;SDS011;5415;59.322;18.246;2022-11-24T15:08:16;2.03;;;1.73;;
10727;SDS011;5415;59.322;18.246;2022-11-24T15:10:45;2.10;;;1.90;;
10727;SDS011;5415;59.322;18.246;2022-11-24T15:13:15;2.60;;;1.80;;
10727;SDS011;5415;59.322;18.246;2022-11-24T15:15:46;2.90;;;2.13;;
10727;SDS011;5415;59.322;18.246;2022-11-24T15:18:23;3.30;;;1.90;;
10727;SDS011;5415;59.322;18.246;2022-11-24T15:20:51;1.87;;;1.77;;
10727;SDS011;5415;59.322;18.246;2022-11-24T15:23:20;3.53;;;2.07;;
10727;SDS011;5415;59.322;18.246;2022-11-24T15:25:48;2.07;;;1.87;;
10727;SDS011;5415;59.322;18.246;2022-11-24T15:28:16;2.60;;;2.10;;
10727;SDS011;5415;59.322;18.246;2022-11-24T15:30:52;3.90;;;2.20;;
10727;SDS011;5415;59.322;18.246;2022-11-24T15:33:20;4.17;;;2.07;;